sensor_id;sensor_type;location;lat;lon;timestamp;P1;durP1;ratioP1;P2;durP2;ratioP2
68647;SDS011;55632;51.962;16.116;2023-08-21T00:03:35;11.93;;;9.18;;
68647;SDS011;55632;51.962;16.116;2023-08-21T00:08:36;9.57;;;8.50;;
68647;SDS011;55632;51.962;16.116;2023-08-21T00:13:37;16.52;;;10.90;;
68647;SDS011;55632;51.962;16.116;2023-08-21T00:18:37;17.15;;;11.10;;
68647;SDS011;55632;51.962;16.116;2023-08-21T00:23:38;10.57;;;9.50;;
68647;SDS011;55632;51.962;16.116;2023-08-21T00:28:39;11.85;;;10.40;;
68647;SDS011;55632;51.962;16.116;2023-08-21T00:33:40;11.05;;;9.85;;
68647;SDS011;55632;51.962;16.116;2023-08-21T00:38:41;11.40;;;8.73;;
68647;SDS011;55632;51.962;16.116;2023-08-21T00:43:42;10.23;;;8.77;;
68647;SDS011;55632;51.962;16.116;2023-08-21T00:48:43;12.85;;;8.93;;
68647;SDS011;55632;51.962;16.116;2023-08-21T00:53:45;14.27;;;8.70;;
68647;SDS011;55632;51.962;16.116;2023-08-21T00:58:46;8.65;;;7.72;;
68647;SDS011;55632;51.962;16.116;2023-08-21T01:03:48;12.13;;;6.72;;
68647;SDS011;55632;51.962;16.116;2023-08-21T01:09:06;7.85;;;6.18;;
68647;SDS011;55632;51.962;16.116;2023-08-21T01:19:37;8.15;;;6.63;;
68647;SDS011;55632;51.962;16.116;2023-08-21T01:24:44;10.93;;;6.45;;
68647;SDS011;55632;51.962;16.116;2023-08-21T01:29:45;10.68;;;6.00;;
68647;SDS011;55632;51.962;16.116;2023-08-21T01:34:46;9.18;;;6.45;;
68647;SDS011;55632;51.962;16.116;2023-08-21T01:39:48;8.75;;;6.53;;
68647;SDS011;55632;51.962;16.116;2023-08-21T01:44:49;9.32;;;7.13;;
68647;SDS011;55632;51.962;16.116;2023-08-21T01:49:50;11.90;;;7.47;;
68647;SDS011;55632;51.962;16.116;2023-08-21T01:54:54;8.07;;;6.55;;
68647;SDS011;55632;51.962;16.116;2023-08-21T01:59:54;8.40;;;6.82;;
68647;SDS011;55632;51.962;16.116;2023-08-21T02:04:55;7.72;;;6.75;;
68647;SDS011;55632;51.962;16.116;2023-08-21T02:09:59;7.85;;;5.45;;
68647;SDS011;55632;51.962;16.116;2023-08-21T02:15:00;6.35;;;4.88;;
68647;SDS011;55632;51.962;16.116;2023-08-21T02:20:06;7.35;;;5.00;;
68647;SDS011;55632;51.962;16.116;2023-08-21T02:25:07;10.65;;;5.80;;
68647;SDS011;55632;51.962;16.116;2023-08-21T02:30:10;5.63;;;4.57;;
68647;SDS011;55632;51.962;16.116;2023-08-21T02:35:12;6.63;;;4.40;;
68647;SDS011;55632;51.962;16.116;2023-08-21T02:40:15;6.40;;;4.65;;
68647;SDS011;55632;51.962;16.116;2023-08-21T02:45:16;10.32;;;5.03;;
68647;SDS011;55632;51.962;16.116;2023-08-21T02:50:19;9.45;;;4.68;;
68647;SDS011;55632;51.962;16.116;2023-08-21T02:55:20;7.70;;;4.70;;
68647;SDS011;55632;51.962;16.116;2023-08-21T03:00:24;4.90;;;4.18;;
68647;SDS011;55632;51.962;16.116;2023-08-21T03:05:25;7.85;;;5.22;;
68647;SDS011;55632;51.962;16.116;2023-08-21T03:10:25;4.50;;;4.05;;
68647;SDS011;55632;51.962;16.116;2023-08-21T03:15:28;7.55;;;4.97;;
68647;SDS011;55632;51.962;16.116;2023-08-21T03:20:29;7.43;;;5.15;;
68647;SDS011;55632;51.962;16.116;2023-08-21T03:25:31;5.18;;;4.03;;
68647;SDS011;55632;51.962;16.116;2023-08-21T03:30:34;6.50;;;4.40;;
68647;SDS011;55632;51.962;16.116;2023-08-21T03:35:35;8.82;;;5.32;;
68647;SDS011;55632;51.962;16.116;2023-08-21T03:40:37;7.70;;;4.90;;
68647;SDS011;55632;51.962;16.116;2023-08-21T03:45:41;8.35;;;5.00;;
68647;SDS011;55632;51.962;16.116;2023-08-21T03:50:41;8.75;;;4.82;;
68647;SDS011;55632;51.962;16.116;2023-08-21T03:55:45;16.95;;;7.32;;
68647;SDS011;55632;51.962;16.116;2023-08-21T04:00:46;15.48;;;7.40;;
68647;SDS011;55632;51.962;16.116;2023-08-21T04:05:47;7.22;;;4.50;;
68647;SDS011;55632;51.962;16.116;2023-08-21T04:10:48;10.07;;;4.82;;
68647;SDS011;55632;51.962;16.116;2023-08-21T04:15:53;8.35;;;4.60;;
68647;SDS011;55632;51.962;16.116;2023-08-21T04:20:56;19.40;;;5.68;;
68647;SDS011;55632;51.962;16.116;2023-08-21T04:26:02;10.63;;;5.63;;
68647;SDS011;55632;51.962;16.116;2023-08-21T04:31:04;10.27;;;5.95;;
68647;SDS011;55632;51.962;16.116;2023-08-21T04:36:06;9.68;;;5.50;;
68647;SDS011;55632;51.962;16.116;2023-08-21T04:41:08;11.55;;;5.65;;
68647;SDS011;55632;51.962;16.116;2023-08-21T04:46:13;77.18;;;13.13;;
68647;SDS011;55632;51.962;16.116;2023-08-21T04:51:16;65.35;;;31.38;;
68647;SDS011;55632;51.962;16.116;2023-08-21T04:56:21;12.52;;;7.03;;
68647;SDS011;55632;51.962;16.116;2023-08-21T05:01:22;9.35;;;5.47;;
68647;SDS011;55632;51.962;16.116;2023-08-21T05:06:27;14.25;;;7.20;;
68647;SDS011;55632;51.962;16.116;2023-08-21T05:11:28;7.97;;;4.75;;
68647;SDS011;55632;51.962;16.116;2023-08-21T05:16:29;6.85;;;4.97;;
68647;SDS011;55632;51.962;16.116;2023-08-21T05:21:31;6.50;;;4.50;;
68647;SDS011;55632;51.962;16.116;2023-08-21T05:26:38;8.68;;;4.57;;
68647;SDS011;55632;51.962;16.116;2023-08-21T05:31:42;10.57;;;5.55;;
68647;SDS011;55632;51.962;16.116;2023-08-21T05:36:43;7.07;;;5.70;;
68647;SDS011;55632;51.962;16.116;2023-08-21T05:41:47;40.35;;;8.60;;
68647;SDS011;55632;51.962;16.116;2023-08-21T05:46:50;8.43;;;5.72;;
68647;SDS011;55632;51.962;16.116;2023-08-21T05:51:51;6.82;;;5.22;;
68647;SDS011;55632;51.962;16.116;2023-08-21T05:56:54;9.95;;;5.75;;
68647;SDS011;55632;51.962;16.116;2023-08-21T06:01:55;10.13;;;5.50;;
68647;SDS011;55632;51.962;16.116;2023-08-21T06:06:57;7.22;;;5.10;;
68647;SDS011;55632;51.962;16.116;2023-08-21T06:11:58;7.75;;;5.07;;
68647;SDS011;55632;51.962;16.116;2023-08-21T06:17:01;9.65;;;3.33;;
68647;SDS011;55632;51.962;16.116;2023-08-21T06:22:04;4.75;;;3.88;;
68647;SDS011;55632;51.962;16.116;2023-08-21T06:27:06;9.88;;;4.00;;
68647;SDS011;55632;51.962;16.116;2023-08-21T06:32:11;5.18;;;3.50;;
68647;SDS011;55632;51.962;16.116;2023-08-21T06:37:14;3.75;;;3.17;;
68647;SDS011;55632;51.962;16.116;2023-08-21T06:42:15;4.68;;;3.55;;
68647;SDS011;55632;51.962;16.116;2023-08-21T06:47:23;7.10;;;3.85;;
68647;SDS011;55632;51.962;16.116;2023-08-21T06:52:24;8.20;;;3.45;;
68647;SDS011;55632;51.962;16.116;2023-08-21T06:57:25;4.13;;;3.25;;
68647;SDS011;55632;51.962;16.116;2023-08-21T07:02:26;8.45;;;3.63;;
68647;SDS011;55632;51.962;16.116;2023-08-21T07:07:27;7.82;;;3.67;;
68647;SDS011;55632;51.962;16.116;2023-08-21T07:12:28;14.00;;;4.35;;
68647;SDS011;55632;51.962;16.116;2023-08-21T07:17:32;8.10;;;3.40;;
68647;SDS011;55632;51.962;16.116;2023-08-21T07:22:33;9.85;;;3.80;;
68647;SDS011;55632;51.962;16.116;2023-08-21T07:27:34;17.67;;;4.55;;
68647;SDS011;55632;51.962;16.116;2023-08-21T07:32:34;13.40;;;4.55;;
68647;SDS011;55632;51.962;16.116;2023-08-21T07:37:35;11.45;;;3.67;;
68647;SDS011;55632;51.962;16.116;2023-08-21T07:42:37;8.32;;;3.40;;
68647;SDS011;55632;51.962;16.116;2023-08-21T07:47:38;12.30;;;3.65;;
68647;SDS011;55632;51.962;16.116;2023-08-21T07:52:39;10.00;;;4.10;;
68647;SDS011;55632;51.962;16.116;2023-08-21T07:57:40;5.93;;;3.85;;
68647;SDS011;55632;51.962;16.116;2023-08-21T08:02:41;5.40;;;2.92;;
68647;SDS011;55632;51.962;16.116;2023-08-21T08:07:43;4.35;;;3.10;;
68647;SDS011;55632;51.962;16.116;2023-08-21T08:12:46;9.50;;;3.75;;
68647;SDS011;55632;51.962;16.116;2023-08-21T08:17:47;5.90;;;2.92;;
68647;SDS011;55632;51.962;16.116;2023-08-21T08:22:52;7.05;;;2.90;;
68647;SDS011;55632;51.962;16.116;2023-08-21T08:27:53;3.05;;;2.70;;
68647;SDS011;55632;51.962;16.116;2023-08-21T08:32:54;4.15;;;2.50;;
68647;SDS011;55632;51.962;16.116;2023-08-21T08:37:54;4.80;;;2.60;;
68647;SDS011;55632;51.962;16.116;2023-08-21T08:42:55;3.47;;;2.70;;
68647;SDS011;55632;51.962;16.116;2023-08-21T08:47:58;7.75;;;3.10;;
68647;SDS011;55632;51.962;16.116;2023-08-21T08:53:01;4.65;;;2.72;;
68647;SDS011;55632;51.962;16.116;2023-08-21T08:58:02;5.05;;;2.83;;
68647;SDS011;55632;51.962;16.116;2023-08-21T09:03:03;7.13;;;3.33;;
68647;SDS011;55632;51.962;16.116;2023-08-21T09:08:13;4.97;;;3.08;;
68647;SDS011;55632;51.962;16.116;2023-08-21T09:13:16;3.92;;;2.53;;
68647;SDS011;55632;51.962;16.116;2023-08-21T09:18:19;10.88;;;3.03;;
68647;SDS011;55632;51.962;16.116;2023-08-21T09:23:27;5.45;;;2.88;;
68647;SDS011;55632;51.962;16.116;2023-08-21T09:28:30;3.70;;;2.58;;
68647;SDS011;55632;51.962;16.116;2023-08-21T09:33:32;6.10;;;2.58;;
68647;SDS011;55632;51.962;16.116;2023-08-21T09:38:34;4.18;;;2.58;;
68647;SDS011;55632;51.962;16.116;2023-08-21T09:43:41;6.30;;;3.58;;
68647;SDS011;55632;51.962;16.116;2023-08-21T09:48:45;5.38;;;3.10;;
68647;SDS011;55632;51.962;16.116;2023-08-21T09:53:50;5.28;;;2.90;;
68647;SDS011;55632;51.962;16.116;2023-08-21T09:58:55;4.33;;;3.10;;
68647;SDS011;55632;51.962;16.116;2023-08-21T10:04:00;5.38;;;2.60;;
68647;SDS011;55632;51.962;16.116;2023-08-21T10:09:03;6.50;;;2.78;;
68647;SDS011;55632;51.962;16.116;2023-08-21T10:14:04;18.60;;;3.28;;
68647;SDS011;55632;51.962;16.116;2023-08-21T10:19:08;4.82;;;2.97;;
68647;SDS011;55632;51.962;16.116;2023-08-21T10:24:12;2.70;;;2.25;;
68647;SDS011;55632;51.962;16.116;2023-08-21T10:29:13;9.48;;;2.13;;
68647;SDS011;55632;51.962;16.116;2023-08-21T10:34:14;4.22;;;2.33;;
68647;SDS011;55632;51.962;16.116;2023-08-21T10:39:26;4.32;;;2.45;;
68647;SDS011;55632;51.962;16.116;2023-08-21T10:49:46;3.60;;;2.28;;
68647;SDS011;55632;51.962;16.116;2023-08-21T10:54:59;5.57;;;2.35;;
68647;SDS011;55632;51.962;16.116;2023-08-21T11:00:10;7.28;;;3.08;;
68647;SDS011;55632;51.962;16.116;2023-08-21T11:05:14;5.00;;;2.40;;
68647;SDS011;55632;51.962;16.116;2023-08-21T11:10:16;5.15;;;2.60;;
68647;SDS011;55632;51.962;16.116;2023-08-21T11:15:18;8.13;;;2.92;;
68647;SDS011;55632;51.962;16.116;2023-08-21T11:20:20;3.75;;;2.40;;
68647;SDS011;55632;51.962;16.116;2023-08-21T11:25:30;4.22;;;2.70;;
68647;SDS011;55632;51.962;16.116;2023-08-21T11:30:31;7.07;;;3.00;;
68647;SDS011;55632;51.962;16.116;2023-08-21T11:35:33;3.85;;;2.78;;
68647;SDS011;55632;51.962;16.116;2023-08-21T11:40:34;4.82;;;2.83;;
68647;SDS011;55632;51.962;16.116;2023-08-21T11:45:35;12.60;;;2.92;;
68647;SDS011;55632;51.962;16.116;2023-08-21T11:50:36;8.32;;;2.83;;
68647;SDS011;55632;51.962;16.116;2023-08-21T11:55:37;3.35;;;2.55;;
68647;SDS011;55632;51.962;16.116;2023-08-21T12:00:40;5.20;;;2.95;;
68647;SDS011;55632;51.962;16.116;2023-08-21T12:05:44;4.80;;;2.53;;
68647;SDS011;55632;51.962;16.116;2023-08-21T12:10:45;4.32;;;2.63;;
68647;SDS011;55632;51.962;16.116;2023-08-21T12:15:52;4.37;;;2.87;;
68647;SDS011;55632;51.962;16.116;2023-08-21T12:20:54;2.42;;;2.22;;
68647;SDS011;55632;51.962;16.116;2023-08-21T12:26:10;6.22;;;2.85;;
68647;SDS011;55632;51.962;16.116;2023-08-21T12:31:11;6.10;;;3.03;;
68647;SDS011;55632;51.962;16.116;2023-08-21T12:36:12;5.93;;;3.40;;
68647;SDS011;55632;51.962;16.116;2023-08-21T12:41:13;6.75;;;2.92;;
68647;SDS011;55632;51.962;16.116;2023-08-21T12:46:14;5.95;;;2.50;;
68647;SDS011;55632;51.962;16.116;2023-08-21T12:51:15;3.65;;;2.70;;
68647;SDS011;55632;51.962;16.116;2023-08-21T12:56:19;6.22;;;2.70;;
68647;SDS011;55632;51.962;16.116;2023-08-21T13:01:20;3.50;;;2.83;;
68647;SDS011;55632;51.962;16.116;2023-08-21T13:06:21;3.42;;;2.47;;
68647;SDS011;55632;51.962;16.116;2023-08-21T13:11:26;5.22;;;2.58;;
68647;SDS011;55632;51.962;16.116;2023-08-21T13:16:27;3.28;;;2.80;;
68647;SDS011;55632;51.962;16.116;2023-08-21T13:21:28;3.88;;;2.70;;
68647;SDS011;55632;51.962;16.116;2023-08-21T13:26:32;4.43;;;2.83;;
68647;SDS011;55632;51.962;16.116;2023-08-21T13:31:35;3.20;;;2.35;;
68647;SDS011;55632;51.962;16.116;2023-08-21T13:36:38;4.50;;;2.90;;
68647;SDS011;55632;51.962;16.116;2023-08-21T13:41:39;5.40;;;2.83;;
68647;SDS011;55632;51.962;16.116;2023-08-21T13:46:42;8.20;;;3.20;;
68647;SDS011;55632;51.962;16.116;2023-08-21T13:51:53;12.55;;;3.53;;
68647;SDS011;55632;51.962;16.116;2023-08-21T13:56:54;7.03;;;3.40;;
68647;SDS011;55632;51.962;16.116;2023-08-21T14:01:55;7.13;;;3.50;;
68647;SDS011;55632;51.962;16.116;2023-08-21T14:06:58;11.52;;;3.80;;
68647;SDS011;55632;51.962;16.116;2023-08-21T14:11:59;7.20;;;3.45;;
68647;SDS011;55632;51.962;16.116;2023-08-21T14:17:01;5.15;;;3.30;;
68647;SDS011;55632;51.962;16.116;2023-08-21T14:22:02;6.90;;;4.07;;
68647;SDS011;55632;51.962;16.116;2023-08-21T14:27:05;11.35;;;6.15;;
68647;SDS011;55632;51.962;16.116;2023-08-21T14:32:09;13.70;;;5.70;;
68647;SDS011;55632;51.962;16.116;2023-08-21T14:37:13;9.50;;;5.03;;
68647;SDS011;55632;51.962;16.116;2023-08-21T14:42:28;7.28;;;4.57;;
68647;SDS011;55632;51.962;16.116;2023-08-21T14:47:32;6.60;;;4.38;;
68647;SDS011;55632;51.962;16.116;2023-08-21T14:52:36;8.10;;;5.35;;
68647;SDS011;55632;51.962;16.116;2023-08-21T14:57:39;14.90;;;7.07;;
68647;SDS011;55632;51.962;16.116;2023-08-21T15:02:40;13.95;;;6.40;;
68647;SDS011;55632;51.962;16.116;2023-08-21T15:07:41;6.05;;;3.97;;
68647;SDS011;55632;51.962;16.116;2023-08-21T15:12:42;9.00;;;4.30;;
68647;SDS011;55632;51.962;16.116;2023-08-21T15:17:44;6.75;;;3.22;;
68647;SDS011;55632;51.962;16.116;2023-08-21T15:22:47;10.32;;;6.55;;
68647;SDS011;55632;51.962;16.116;2023-08-21T15:27:50;8.65;;;5.13;;
68647;SDS011;55632;51.962;16.116;2023-08-21T15:32:51;153.55;;;87.97;;
68647;SDS011;55632;51.962;16.116;2023-08-21T15:37:52;108.22;;;64.78;;
68647;SDS011;55632;51.962;16.116;2023-08-21T15:42:53;81.18;;;49.22;;
68647;SDS011;55632;51.962;16.116;2023-08-21T15:47:55;15.82;;;12.40;;
68647;SDS011;55632;51.962;16.116;2023-08-21T15:52:56;44.38;;;28.33;;
68647;SDS011;55632;51.962;16.116;2023-08-21T15:57:57;14.25;;;7.65;;
68647;SDS011;55632;51.962;16.116;2023-08-21T16:02:58;29.25;;;11.20;;
68647;SDS011;55632;51.962;16.116;2023-08-21T16:07:59;9.18;;;5.07;;
68647;SDS011;55632;51.962;16.116;2023-08-21T16:13:00;4.75;;;3.55;;
68647;SDS011;55632;51.962;16.116;2023-08-21T16:18:04;7.13;;;5.05;;
68647;SDS011;55632;51.962;16.116;2023-08-21T16:23:05;30.05;;;21.58;;
68647;SDS011;55632;51.962;16.116;2023-08-21T16:28:06;12.45;;;6.85;;
68647;SDS011;55632;51.962;16.116;2023-08-21T16:33:09;12.20;;;6.93;;
68647;SDS011;55632;51.962;16.116;2023-08-21T16:38:11;8.82;;;4.47;;
68647;SDS011;55632;51.962;16.116;2023-08-21T16:43:16;15.32;;;5.65;;
68647;SDS011;55632;51.962;16.116;2023-08-21T16:48:22;8.68;;;4.90;;
68647;SDS011;55632;51.962;16.116;2023-08-21T16:53:23;8.63;;;4.32;;
68647;SDS011;55632;51.962;16.116;2023-08-21T16:58:24;9.75;;;3.88;;
68647;SDS011;55632;51.962;16.116;2023-08-21T17:03:25;9.45;;;4.10;;
68647;SDS011;55632;51.962;16.116;2023-08-21T17:08:26;14.02;;;4.05;;
68647;SDS011;55632;51.962;16.116;2023-08-21T17:13:26;5.97;;;3.33;;
68647;SDS011;55632;51.962;16.116;2023-08-21T17:18:27;8.25;;;3.53;;
68647;SDS011;55632;51.962;16.116;2023-08-21T17:23:28;9.95;;;4.35;;
68647;SDS011;55632;51.962;16.116;2023-08-21T17:28:29;7.78;;;4.20;;
68647;SDS011;55632;51.962;16.116;2023-08-21T17:33:30;9.45;;;4.72;;
68647;SDS011;55632;51.962;16.116;2023-08-21T17:38:31;12.18;;;6.60;;
68647;SDS011;55632;51.962;16.116;2023-08-21T17:43:34;10.70;;;5.63;;
68647;SDS011;55632;51.962;16.116;2023-08-21T17:48:35;13.45;;;5.63;;
68647;SDS011;55632;51.962;16.116;2023-08-21T17:53:41;30.80;;;16.88;;
68647;SDS011;55632;51.962;16.116;2023-08-21T17:58:42;25.27;;;9.02;;
68647;SDS011;55632;51.962;16.116;2023-08-21T18:03:46;29.45;;;16.25;;
68647;SDS011;55632;51.962;16.116;2023-08-21T18:08:47;17.60;;;9.68;;
68647;SDS011;55632;51.962;16.116;2023-08-21T18:13:50;44.45;;;15.35;;
68647;SDS011;55632;51.962;16.116;2023-08-21T18:18:51;56.45;;;19.45;;
68647;SDS011;55632;51.962;16.116;2023-08-21T18:23:52;32.05;;;15.73;;
68647;SDS011;55632;51.962;16.116;2023-08-21T18:28:53;29.13;;;14.57;;
68647;SDS011;55632;51.962;16.116;2023-08-21T18:33:54;29.02;;;13.38;;
68647;SDS011;55632;51.962;16.116;2023-08-21T18:38:58;38.13;;;17.38;;
68647;SDS011;55632;51.962;16.116;2023-08-21T18:43:59;28.98;;;12.32;;
68647;SDS011;55632;51.962;16.116;2023-08-21T18:49:01;22.95;;;10.13;;
68647;SDS011;55632;51.962;16.116;2023-08-21T18:54:01;13.90;;;8.00;;
68647;SDS011;55632;51.962;16.116;2023-08-21T18:59:05;24.35;;;12.50;;
68647;SDS011;55632;51.962;16.116;2023-08-21T19:04:06;27.55;;;14.52;;
68647;SDS011;55632;51.962;16.116;2023-08-21T19:09:07;26.75;;;12.68;;
68647;SDS011;55632;51.962;16.116;2023-08-21T19:14:13;22.52;;;12.55;;
68647;SDS011;55632;51.962;16.116;2023-08-21T19:19:17;18.55;;;9.80;;
68647;SDS011;55632;51.962;16.116;2023-08-21T19:24:19;20.20;;;10.00;;
68647;SDS011;55632;51.962;16.116;2023-08-21T19:29:19;16.60;;;8.95;;
68647;SDS011;55632;51.962;16.116;2023-08-21T19:34:20;8.57;;;5.78;;
68647;SDS011;55632;51.962;16.116;2023-08-21T19:39:22;10.25;;;7.20;;
68647;SDS011;55632;51.962;16.116;2023-08-21T19:44:26;9.63;;;6.55;;
68647;SDS011;55632;51.962;16.116;2023-08-21T19:49:29;8.93;;;4.93;;
68647;SDS011;55632;51.962;16.116;2023-08-21T19:54:38;8.52;;;5.97;;
68647;SDS011;55632;51.962;16.116;2023-08-21T19:59:39;8.68;;;5.90;;
68647;SDS011;55632;51.962;16.116;2023-08-21T20:04:40;8.82;;;5.90;;
68647;SDS011;55632;51.962;16.116;2023-08-21T20:09:44;8.45;;;4.20;;
68647;SDS011;55632;51.962;16.116;2023-08-21T20:14:45;7.68;;;4.85;;
68647;SDS011;55632;51.962;16.116;2023-08-21T20:19:46;7.88;;;5.55;;
68647;SDS011;55632;51.962;16.116;2023-08-21T20:24:47;9.77;;;6.15;;
68647;SDS011;55632;51.962;16.116;2023-08-21T20:29:48;11.93;;;6.00;;
68647;SDS011;55632;51.962;16.116;2023-08-21T20:34:48;9.32;;;5.35;;
68647;SDS011;55632;51.962;16.116;2023-08-21T20:39:50;9.98;;;5.20;;
68647;SDS011;55632;51.962;16.116;2023-08-21T20:44:56;6.28;;;4.78;;
68647;SDS011;55632;51.962;16.116;2023-08-21T20:49:59;6.78;;;4.40;;
68647;SDS011;55632;51.962;16.116;2023-08-21T20:55:00;11.43;;;5.13;;
68647;SDS011;55632;51.962;16.116;2023-08-21T21:00:01;5.95;;;5.10;;
68647;SDS011;55632;51.962;16.116;2023-08-21T21:05:06;15.80;;;7.32;;
68647;SDS011;55632;51.962;16.116;2023-08-21T21:10:07;26.60;;;12.95;;
68647;SDS011;55632;51.962;16.116;2023-08-21T21:15:14;8.65;;;5.43;;
68647;SDS011;55632;51.962;16.116;2023-08-21T21:20:17;9.63;;;5.70;;
68647;SDS011;55632;51.962;16.116;2023-08-21T21:25:19;10.88;;;5.10;;
68647;SDS011;55632;51.962;16.116;2023-08-21T21:30:21;9.10;;;5.70;;
68647;SDS011;55632;51.962;16.116;2023-08-21T21:35:25;8.93;;;5.97;;
68647;SDS011;55632;51.962;16.116;2023-08-21T21:40:26;9.85;;;5.60;;
68647;SDS011;55632;51.962;16.116;2023-08-21T21:45:27;6.30;;;4.78;;
68647;SDS011;55632;51.962;16.116;2023-08-21T21:50:27;26.45;;;8.45;;
68647;SDS011;55632;51.962;16.116;2023-08-21T21:55:32;8.38;;;6.20;;
68647;SDS011;55632;51.962;16.116;2023-08-21T22:00:33;12.98;;;7.95;;
68647;SDS011;55632;51.962;16.116;2023-08-21T22:05:34;11.50;;;7.35;;
68647;SDS011;55632;51.962;16.116;2023-08-21T22:10:38;10.93;;;8.23;;
68647;SDS011;55632;51.962;16.116;2023-08-21T22:15:39;10.25;;;7.13;;
68647;SDS011;55632;51.962;16.116;2023-08-21T22:20:40;12.35;;;7.15;;
68647;SDS011;55632;51.962;16.116;2023-08-21T22:25:44;16.52;;;7.15;;
68647;SDS011;55632;51.962;16.116;2023-08-21T22:30:45;11.20;;;7.57;;
68647;SDS011;55632;51.962;16.116;2023-08-21T22:35:46;10.52;;;6.85;;
68647;SDS011;55632;51.962;16.116;2023-08-21T22:40:50;9.60;;;6.25;;
68647;SDS011;55632;51.962;16.116;2023-08-21T22:45:51;11.10;;;6.13;;
68647;SDS011;55632;51.962;16.116;2023-08-21T22:50:52;12.60;;;6.35;;
68647;SDS011;55632;51.962;16.116;2023-08-21T22:55:53;12.13;;;7.85;;
68647;SDS011;55632;51.962;16.116;2023-08-21T23:00:57;10.93;;;7.53;;
68647;SDS011;55632;51.962;16.116;2023-08-21T23:05:58;11.00;;;7.38;;
68647;SDS011;55632;51.962;16.116;2023-08-21T23:11:01;7.30;;;6.47;;
68647;SDS011;55632;51.962;16.116;2023-08-21T23:16:02;8.23;;;6.15;;
68647;SDS011;55632;51.962;16.116;2023-08-21T23:21:03;8.73;;;5.82;;
68647;SDS011;55632;51.962;16.116;2023-08-21T23:26:07;5.93;;;5.10;;
68647;SDS011;55632;51.962;16.116;2023-08-21T23:31:08;6.18;;;5.05;;
68647;SDS011;55632;51.962;16.116;2023-08-21T23:36:09;7.95;;;4.97;;
68647;SDS011;55632;51.962;16.116;2023-08-21T23:41:10;6.30;;;4.60;;
68647;SDS011;55632;51.962;16.116;2023-08-21T23:46:11;8.55;;;4.88;;
68647;SDS011;55632;51.962;16.116;2023-08-21T23:51:12;6.70;;;4.57;;
68647;SDS011;55632;51.962;16.116;2023-08-21T23:56:13;6.70;;;4.50;;
